Time;durP1;ratioP1;P1;durP2;ratioP2;P2;SDS_P1;SDS_P2;PMS_P1;PMS_P2;Temp;Humidity;BMP_temperature;BMP_pressure;BME280_temperature;BME280_humidity;BME280_pressure;Samples;Min_cycle;Max_cycle;Signal;HPM_P1;HPM_P2
2023/05/19 00:00:05;;;;;;;6.22;4.88;;;;;;;11.10;85.93;93563.72;523918;28;839;-58
2023/05/19 00:00:21;;;;;;;6.53;5.25;;;;;;;11.09;86.05;93564.25;523976;28;889;-58
2023/05/19 00:00:37;;;;;;;6.88;5.78;;;;;;;11.08;85.96;93565.56;524069;28;809;-58
2023/05/19 00:00:53;;;;;;;6.87;5.50;;;;;;;11.06;86.04;93563.34;524091;28;781;-59
2023/05/19 00:01:09;;;;;;;8.55;5.18;;;;;;;10.98;86.12;93559.81;523990;28;895;-59
2023/05/19 00:01:25;;;;;;;9.13;5.10;;;;;;;10.97;86.26;93550.06;524094;28;855;-59
2023/05/19 00:01:47;;;;;;;5.53;4.65;;;;;;;10.99;86.28;93555.03;524064;28;837;-59
2023/05/19 00:02:07;;;;;;;7.00;4.80;;;;;;;10.98;86.29;93556.34;524089;28;872;-59
2023/05/19 00:02:24;;;;;;;7.15;5.15;;;;;;;10.96;86.73;93553.38;524045;28;876;-59
2023/05/19 00:02:42;;;;;;;7.50;5.68;;;;;;;10.92;86.78;93550.97;524073;28;817;-60
2023/05/19 00:02:59;;;;;;;7.18;5.22;;;;;;;10.91;86.75;93548.75;524005;28;931;-59
2023/05/19 00:03:16;;;;;;;7.00;5.18;;;;;;;10.87;87.05;93543.56;523999;28;793;-59
2023/05/19 00:03:32;;;;;;;7.75;4.95;;;;;;;10.84;87.32;93541.94;524040;28;864;-59
2023/05/19 00:04:01;;;;;;;6.45;4.53;;;;;;;10.80;87.37;93560.16;524004;28;891;-59
2023/05/19 00:04:17;;;;;;;7.18;4.75;;;;;;;10.72;87.65;93554.56;524103;28;897;-59
2023/05/19 00:04:34;;;;;;;7.10;5.18;;;;;;;10.75;87.99;93558.28;524076;28;1028;-59
2023/05/19 00:04:49;;;;;;;7.57;5.45;;;;;;;10.78;88.03;93559.94;524053;28;892;-59
2023/05/19 00:05:05;;;;;;;6.33;5.30;;;;;;;10.82;88.22;93563.09;524100;28;851;-59
2023/05/19 00:05:21;;;;;;;6.07;5.45;;;;;;;10.84;88.23;93555.75;523973;28;796;-59
2023/05/19 00:05:44;;;;;;;5.68;5.07;;;;;;;10.94;88.02;93566.97;524076;28;851;-60
2023/05/19 00:06:01;;;;;;;6.07;5.32;;;;;;;10.95;88.00;93566.47;525976;28;1105;-60
2023/05/19 00:06:18;;;;;;;6.55;5.85;;;;;;;10.97;87.76;93558.34;526133;28;926;-60
2023/05/19 00:06:35;;;;;;;5.70;5.15;;;;;;;10.84;88.10;93561.25;526026;28;875;-60
2023/05/19 00:06:50;;;;;;;6.30;4.63;;;;;;;10.85;88.34;93562.00;525958;28;819;-59
2023/05/19 00:07:08;;;;;;;6.53;4.70;;;;;;;10.83;88.29;93557.00;526060;28;788;-60
2023/05/19 00:07:25;;;;;;;6.68;5.38;;;;;;;10.87;88.28;93560.16;523833;28;904;-59
2023/05/19 00:07:40;;;;;;;6.28;5.22;;;;;;;10.88;88.11;93547.81;521841;28;867;-59
2023/05/19 00:08:00;;;;;;;6.50;5.20;;;;;;;10.92;87.99;93550.22;517703;28;846;-59
2023/05/19 00:08:16;;;;;;;6.63;5.20;;;;;;;10.81;87.95;93539.50;517664;28;1606;-59
2023/05/19 00:08:33;;;;;;;6.93;4.88;;;;;;;10.96;87.66;93556.88;521591;28;893;-59
2023/05/19 00:08:48;;;;;;;6.90;4.82;;;;;;;10.97;87.48;93555.59;521877;28;793;-58
2023/05/19 00:09:06;;;;;;;6.80;5.30;;;;;;;11.00;87.36;93551.72;521832;28;880;-58
2023/05/19 00:09:22;;;;;;;7.13;5.20;;;;;;;11.05;87.17;93558.34;523295;28;2139;-59
2023/05/19 00:09:37;;;;;;;7.50;5.17;;;;;;;11.04;86.87;93557.66;525468;28;797;-59
2023/05/19 00:09:53;;;;;;;7.32;5.18;;;;;;;10.98;86.92;93553.56;529163;27;775;-59
2023/05/19 00:10:09;;;;;;;7.18;5.20;;;;;;;10.98;86.97;93553.56;530137;27;1632;-58
2023/05/19 00:10:30;;;;;;;7.10;5.32;;;;;;;10.99;86.97;93555.03;529094;27;946;-59
2023/05/19 00:10:45;;;;;;;5.82;4.80;;;;;;;11.03;86.84;93555.41;528120;28;836;-59
2023/05/19 00:11:01;;;;;;;6.18;5.03;;;;;;;11.09;86.75;93555.97;527951;28;860;-59
2023/05/19 00:11:16;;;;;;;5.80;5.05;;;;;;;11.08;86.42;93548.97;526949;28;777;-58
2023/05/19 00:11:34;;;;;;;8.23;4.80;;;;;;;11.03;86.25;93545.09;526129;28;840;-59
2023/05/19 00:11:50;;;;;;;7.85;4.63;;;;;;;11.12;86.13;93554.88;526083;28;959;-59
2023/05/19 00:12:06;;;;;;;6.82;4.68;;;;;;;11.11;85.89;93551.38;526051;28;835;-59
2023/05/19 00:12:22;;;;;;;7.13;4.60;;;;;;;11.11;85.79;93550.66;526067;28;809;-58
2023/05/19 00:12:37;;;;;;;5.93;4.75;;;;;;;11.10;85.84;93549.16;526157;28;992;-59
2023/05/19 00:12:53;;;;;;;6.60;5.23;;;;;;;11.12;85.78;93552.13;526123;28;820;-59
2023/05/19 00:13:08;;;;;;;8.73;5.63;;;;;;;11.11;85.72;93548.63;526144;28;887;-59
2023/05/19 00:13:24;;;;;;;9.63;5.40;;;;;;;11.13;85.81;93551.56;525992;28;890;-60
2023/05/19 00:13:40;;;;;;;8.77;5.53;;;;;;;11.16;85.91;93546.97;526172;28;835;-59
2023/05/19 00:13:57;;;;;;;7.30;5.60;;;;;;;11.17;85.75;93553.97;526019;28;1965;-60
2023/05/19 00:14:13;;;;;;;6.80;5.50;;;;;;;11.19;85.81;93551.41;526139;28;844;-59
2023/05/19 00:14:29;;;;;;;7.85;5.50;;;;;;;11.12;85.81;93541.06;526191;28;870;-58
2023/05/19 00:14:44;;;;;;;6.93;4.93;;;;;;;11.16;85.62;93547.72;526140;28;797;-59
2023/05/19 00:15:00;;;;;;;5.47;4.70;;;;;;;11.11;85.87;93548.63;526168;28;776;-60
2023/05/19 00:15:16;;;;;;;6.93;4.90;;;;;;;11.12;85.83;93536.28;526088;28;820;-59
2023/05/19 00:15:31;;;;;;;8.30;4.78;;;;;;;11.14;86.06;93539.22;526099;28;1140;-59
2023/05/19 00:15:47;;;;;;;7.15;5.03;;;;;;;11.17;85.78;93545.69;526169;28;820;-58
2023/05/19 00:16:02;;;;;;;7.13;5.10;;;;;;;11.17;85.86;93543.66;526171;28;879;-58
2023/05/19 00:16:18;;;;;;;6.60;5.03;;;;;;;11.19;85.71;93545.88;526090;28;793;-59
2023/05/19 00:16:34;;;;;;;5.97;5.18;;;;;;;11.21;85.60;93551.59;526147;28;895;-59
2023/05/19 00:16:50;;;;;;;6.28;4.78;;;;;;;11.20;85.46;93539.78;525967;28;1300;-60
2023/05/19 00:17:06;;;;;;;7.22;4.90;;;;;;;11.19;85.70;93541.09;524030;28;958;-59
2023/05/19 00:17:22;;;;;;;7.28;5.05;;;;;;;11.22;85.56;93547.53;523943;28;837;-59
2023/05/19 00:17:41;;;;;;;6.40;5.00;;;;;;;11.22;85.53;93548.25;524091;28;773;-60
2023/05/19 00:17:56;;;;;;;6.03;4.78;;;;;;;11.24;85.48;93545.69;524021;28;883;-59
2023/05/19 00:18:12;;;;;;;5.75;4.68;;;;;;;11.26;85.33;93542.38;524053;28;789;-58
2023/05/19 00:18:28;;;;;;;5.53;4.90;;;;;;;11.28;85.19;93542.56;523971;28;840;-60
2023/05/19 00:18:43;;;;;;;5.23;4.73;;;;;;;11.29;85.19;93546.81;524090;28;804;-59
2023/05/19 00:19:01;;;;;;;6.35;4.80;;;;;;;11.28;85.07;93542.56;523958;28;895;-59
2023/05/19 00:19:17;;;;;;;6.55;4.82;;;;;;;11.29;85.12;93541.28;524031;28;817;-59
2023/05/19 00:19:32;;;;;;;6.65;5.10;;;;;;;11.28;85.07;93537.75;524055;28;866;-59
2023/05/19 00:19:48;;;;;;;7.07;4.95;;;;;;;11.32;85.06;93545.72;523994;28;883;-59
2023/05/19 00:20:06;;;;;;;7.60;4.90;;;;;;;11.35;85.13;93544.59;524010;28;1077;-60
2023/05/19 00:20:21;;;;;;;7.13;4.93;;;;;;;11.31;85.06;93542.19;524003;28;868;-60
2023/05/19 00:20:36;;;;;;;7.30;5.03;;;;;;;11.28;85.13;93537.06;524086;28;887;-59
2023/05/19 00:20:52;;;;;;;7.75;5.25;;;;;;;11.31;85.18;93547.00;523891;28;753;-59
2023/05/19 00:21:07;;;;;;;6.60;4.93;;;;;;;11.33;85.08;93541.63;523873;28;1155;-59
2023/05/19 00:21:23;;;;;;;5.97;4.57;;;;;;;11.35;85.11;93547.34;521784;28;856;-59
2023/05/19 00:21:39;;;;;;;5.77;4.40;;;;;;;11.32;85.07;93540.94;521788;28;810;-59
2023/05/19 00:21:54;;;;;;;5.72;4.47;;;;;;;11.34;84.81;93543.88;521746;28;941;-59
2023/05/19 00:22:10;;;;;;;5.00;4.50;;;;;;;11.33;84.57;93539.63;521781;28;812;-59
2023/05/19 00:22:25;;;;;;;6.30;4.57;;;;;;;11.22;84.39;93536.47;521824;28;769;-59
2023/05/19 00:22:42;;;;;;;7.47;4.37;;;;;;;11.20;84.43;93531.50;522154;28;919;-60
2023/05/19 00:22:58;;;;;;;7.15;4.68;;;;;;;11.20;84.52;93530.75;523823;28;873;-59
2023/05/19 00:23:13;;;;;;;6.50;5.10;;;;;;;11.20;84.51;93531.50;523835;28;1543;-60
2023/05/19 00:23:29;;;;;;;7.23;5.10;;;;;;;11.23;84.62;93532.44;523963;28;875;-60
2023/05/19 00:23:44;;;;;;;7.90;4.95;;;;;;;11.24;84.55;93536.69;523999;28;861;-59
2023/05/19 00:24:00;;;;;;;6.90;4.70;;;;;;;11.23;84.58;93547.00;523957;28;987;-59
2023/05/19 00:24:15;;;;;;;11.60;5.10;;;;;;;11.22;84.83;93537.22;524018;28;824;-59
2023/05/19 00:24:31;;;;;;;23.00;5.70;;;;;;;11.13;84.88;93540.50;524047;28;870;-60
2023/05/19 00:24:46;;;;;;;16.58;5.20;;;;;;;11.06;85.39;93544.00;524061;28;880;-60
2023/05/19 00:25:02;;;;;;;6.70;4.63;;;;;;;10.99;85.82;93544.72;524043;28;832;-60
2023/05/19 00:25:17;;;;;;;7.47;4.50;;;;;;;10.92;86.23;93545.44;523949;28;780;-60
2023/05/19 00:25:32;;;;;;;15.30;5.23;;;;;;;10.90;86.68;93544.50;524059;28;889;-60
2023/05/19 00:25:48;;;;;;;23.63;5.97;;;;;;;10.87;86.92;93548.38;524088;28;766;-60
2023/05/19 00:26:03;;;;;;;17.48;5.60;;;;;;;10.83;87.33;93539.72;523982;28;887;-59
2023/05/19 00:26:18;;;;;;;8.40;5.03;;;;;;;10.84;87.48;93541.94;523999;28;1029;-60
2023/05/19 00:26:34;;;;;;;7.97;5.10;;;;;;;10.88;87.75;93544.31;524106;28;766;-59
2023/05/19 00:26:49;;;;;;;8.25;5.35;;;;;;;10.92;87.83;93548.19;523990;28;788;-60
2023/05/19 00:27:05;;;;;;;8.13;5.33;;;;;;;10.95;87.69;93544.34;524089;28;796;-60
2023/05/19 00:27:20;;;;;;;9.55;5.10;;;;;;;10.99;87.60;93547.50;523937;28;860;-59
2023/05/19 00:27:35;;;;;;;8.70;5.00;;;;;;;11.03;87.45;93547.88;524020;28;804;-59
2023/05/19 00:27:51;;;;;;;6.90;4.93;;;;;;;11.06;87.31;93557.09;523857;28;2354;-60
2023/05/19 00:28:06;;;;;;;9.73;5.43;;;;;;;11.06;87.10;93555.06;524064;28;827;-60
2023/05/19 00:28:21;;;;;;;9.30;5.30;;;;;;;11.07;87.03;93553.75;523949;28;873;-60
2023/05/19 00:28:37;;;;;;;6.23;4.77;;;;;;;11.02;86.89;93554.66;523981;28;859;-60
2023/05/19 00:28:52;;;;;;;9.82;5.20;;;;;;;10.94;87.01;93545.63;524032;28;847;-60
2023/05/19 00:29:08;;;;;;;10.03;5.20;;;;;;;10.89;87.26;93543.78;524010;28;908;-60
2023/05/19 00:29:23;;;;;;;7.05;5.03;;;;;;;10.89;87.34;93549.31;524016;28;788;-60
2023/05/19 00:29:38;;;;;;;7.23;5.07;;;;;;;10.92;87.42;93548.19;524082;28;910;-60
2023/05/19 00:29:54;;;;;;;7.20;5.10;;;;;;;10.95;87.69;93555.41;524054;28;828;-60
2023/05/19 00:30:09;;;;;;;8.25;5.45;;;;;;;10.97;87.54;93549.31;523979;28;861;-59
2023/05/19 00:30:25;;;;;;;8.30;5.53;;;;;;;10.99;87.40;93555.78;524068;28;792;-60
2023/05/19 00:30:40;;;;;;;6.53;4.93;;;;;;;10.99;87.33;93538.47;523999;28;864;-60
2023/05/19 00:30:56;;;;;;;6.47;5.00;;;;;;;11.04;87.12;93552.13;523798;28;1148;-60
2023/05/19 00:31:11;;;;;;;6.40;5.03;;;;;;;11.08;86.86;93555.25;523948;28;808;-59
2023/05/19 00:31:27;;;;;;;7.17;5.07;;;;;;;11.10;86.57;93549.91;524003;28;855;-59
2023/05/19 00:31:42;;;;;;;8.13;4.93;;;;;;;11.13;86.38;93556.38;524004;28;797;-60
2023/05/19 00:31:58;;;;;;;6.53;4.67;;;;;;;11.15;86.12;93560.03;524041;28;866;-60
2023/05/19 00:32:14;;;;;;;7.43;5.10;;;;;;;11.12;85.94;93554.88;523974;28;910;-60
2023/05/19 00:32:29;;;;;;;11.95;5.57;;;;;;;11.00;86.05;93557.25;524008;28;1054;-60
2023/05/19 00:32:45;;;;;;;10.67;5.60;;;;;;;10.96;86.19;93559.63;524100;28;829;-60
2023/05/19 00:33:00;;;;;;;7.23;5.53;;;;;;;10.90;86.45;93555.56;523965;28;1173;-59
2023/05/19 00:33:15;;;;;;;8.48;5.30;;;;;;;10.83;86.83;93565.31;523972;28;859;-60
2023/05/19 00:33:34;;;;;;;9.87;5.30;;;;;;;10.77;87.13;93564.00;523905;28;867;-60
2023/05/19 00:33:50;;;;;;;8.32;5.22;;;;;;;10.72;87.54;93568.38;524498;28;1969;-60
2023/05/19 00:34:06;;;;;;;6.47;5.25;;;;;;;10.71;87.74;93563.41;526108;28;887;-60
2023/05/19 00:34:21;;;;;;;9.40;5.30;;;;;;;10.63;88.17;93563.41;526091;28;768;-60
2023/05/19 00:34:36;;;;;;;16.45;5.90;;;;;;;10.63;88.46;93561.34;526174;28;780;-60
2023/05/19 00:34:52;;;;;;;16.20;6.40;;;;;;;10.65;88.71;93564.31;526138;28;797;-60
2023/05/19 00:35:07;;;;;;;10.27;6.10;;;;;;;10.71;88.71;93566.94;526103;28;808;-60
2023/05/19 00:35:23;;;;;;;7.22;5.35;;;;;;;10.71;88.47;93558.63;526021;28;827;-60
2023/05/19 00:35:39;;;;;;;7.35;5.03;;;;;;;10.68;88.40;93559.00;526079;28;900;-59
2023/05/19 00:35:54;;;;;;;6.38;4.97;;;;;;;10.63;88.49;93555.13;526055;28;883;-59
2023/05/19 00:36:10;;;;;;;6.00;5.40;;;;;;;10.66;88.65;93557.53;526135;28;808;-60
2023/05/19 00:36:25;;;;;;;6.43;5.60;;;;;;;10.65;88.50;93555.31;526105;28;1185;-60
2023/05/19 00:36:41;;;;;;;6.95;5.80;;;;;;;10.60;88.61;93554.19;526057;28;975;-59
2023/05/19 00:36:56;;;;;;;7.17;5.97;;;;;;;10.61;88.79;93554.94;526105;28;879;-60
2023/05/19 00:37:11;;;;;;;8.17;5.80;;;;;;;10.56;88.91;93544.78;526045;28;816;-60
2023/05/19 00:37:27;;;;;;;8.70;5.80;;;;;;;10.57;89.00;93547.00;526119;28;808;-59
2023/05/19 00:37:42;;;;;;;7.70;6.07;;;;;;;10.61;88.88;93547.38;526072;28;1081;-59
2023/05/19 00:37:57;;;;;;;7.60;5.97;;;;;;;10.65;88.84;93555.31;526098;28;843;-59
2023/05/19 00:38:13;;;;;;;8.95;5.93;;;;;;;10.68;88.77;93554.94;526061;28;843;-59
2023/05/19 00:38:32;;;;;;;9.40;6.17;;;;;;;10.63;88.92;93550.31;526142;28;780;-60
2023/05/19 00:38:48;;;;;;;8.32;6.18;;;;;;;10.59;89.05;93552.69;526045;28;933;-58
2023/05/19 00:39:03;;;;;;;7.13;6.20;;;;;;;10.52;89.38;93553.44;526103;28;835;-59
2023/05/19 00:39:18;;;;;;;7.10;6.40;;;;;;;10.50;89.53;93547.69;526000;28;891;-58
2023/05/19 00:39:34;;;;;;;7.80;6.30;;;;;;;10.53;89.53;93552.13;526148;28;844;-58
2023/05/19 00:39:49;;;;;;;7.93;6.27;;;;;;;10.47;89.75;93551.56;526066;28;950;-59
2023/05/19 00:40:05;;;;;;;7.50;6.47;;;;;;;10.47;89.81;93545.28;526147;28;902;-59
2023/05/19 00:40:22;;;;;;;8.32;6.88;;;;;;;10.50;89.98;93547.69;525890;28;1218;-59
2023/05/19 00:40:37;;;;;;;8.25;6.82;;;;;;;10.54;89.92;93559.13;525926;28;884;-58
2023/05/19 00:40:53;;;;;;;8.75;6.72;;;;;;;10.56;89.98;93550.31;525852;28;909;-58
2023/05/19 00:41:08;;;;;;;8.20;6.23;;;;;;;10.59;89.72;93557.47;525932;28;852;-58
2023/05/19 00:41:23;;;;;;;8.87;6.37;;;;;;;10.62;89.82;93557.13;525892;28;902;-58
2023/05/19 00:41:39;;;;;;;9.23;6.90;;;;;;;10.65;89.66;93556.03;525934;28;870;-58
2023/05/19 00:41:55;;;;;;;8.80;7.03;;;;;;;10.66;89.37;93554.75;523830;28;855;-58
2023/05/19 00:42:10;;;;;;;8.18;7.03;;;;;;;10.68;89.32;93551.44;524332;28;879;-58
2023/05/19 00:42:25;;;;;;;7.90;7.07;;;;;;;10.69;89.26;93547.41;525942;28;858;-59
2023/05/19 00:42:41;;;;;;;7.93;6.75;;;;;;;10.72;89.17;93559.38;525887;28;810;-58
2023/05/19 00:42:56;;;;;;;8.23;6.77;;;;;;;10.73;89.13;93555.31;525957;28;774;-58
2023/05/19 00:43:12;;;;;;;8.03;7.13;;;;;;;10.76;89.10;93559.75;525772;28;918;-59
2023/05/19 00:43:28;;;;;;;8.63;6.90;;;;;;;10.77;88.99;93558.47;525923;28;936;-58
2023/05/19 00:43:44;;;;;;;8.85;7.10;;;;;;;10.80;89.07;93554.63;525939;28;872;-58
2023/05/19 00:43:59;;;;;;;8.93;7.47;;;;;;;10.81;88.98;93553.31;525909;28;788;-58
2023/05/19 00:44:15;;;;;;;9.15;7.70;;;;;;;10.82;88.88;93552.78;525945;28;869;-58
2023/05/19 00:44:30;;;;;;;9.47;7.43;;;;;;;10.83;88.85;93550.78;526002;28;780;-58
2023/05/19 00:44:46;;;;;;;11.10;7.00;;;;;;;10.85;88.80;93543.38;525930;28;900;-58
2023/05/19 00:45:01;;;;;;;11.68;7.47;;;;;;;10.85;88.81;93545.44;525952;28;788;-59
2023/05/19 00:45:16;;;;;;;9.33;7.17;;;;;;;10.77;88.79;93542.63;525913;28;791;-59
2023/05/19 00:45:32;;;;;;;8.40;6.73;;;;;;;10.85;88.81;93548.19;525859;28;839;-59
2023/05/19 00:45:47;;;;;;;8.60;6.93;;;;;;;10.77;88.52;93545.41;524128;28;823;-59
2023/05/19 00:46:03;;;;;;;8.90;6.70;;;;;;;10.66;88.72;93546.47;525894;28;858;-59
2023/05/19 00:46:18;;;;;;;7.43;6.28;;;;;;;10.58;88.88;93550.50;525945;28;816;-58
2023/05/19 00:46:34;;;;;;;7.90;6.63;;;;;;;10.54;89.25;93544.59;525944;28;883;-58
2023/05/19 00:46:49;;;;;;;8.75;6.53;;;;;;;10.51;89.41;93546.41;525745;28;1119;-58
2023/05/19 00:47:04;;;;;;;7.07;6.10;;;;;;;10.50;89.53;93544.22;525884;28;914;-58
2023/05/19 00:47:20;;;;;;;7.00;6.27;;;;;;;10.34;89.58;93526.84;525827;28;918;-58
2023/05/19 00:47:36;;;;;;;9.07;6.68;;;;;;;10.52;89.81;93547.91;526011;28;876;-59
2023/05/19 00:47:51;;;;;;;10.73;7.17;;;;;;;10.56;89.72;93545.53;526004;28;872;-59
2023/05/19 00:48:07;;;;;;;9.57;6.93;;;;;;;10.58;89.65;93540.19;526133;28;800;-60
2023/05/19 00:48:24;;;;;;;9.00;6.77;;;;;;;10.60;89.57;93537.63;524569;28;1077;-59
2023/05/19 00:48:39;;;;;;;9.77;6.65;;;;;;;10.59;89.56;93536.13;523683;28;909;-58
2023/05/19 00:48:55;;;;;;;9.73;6.87;;;;;;;10.61;89.59;93532.84;523831;28;780;-59
2023/05/19 00:49:10;;;;;;;10.10;7.18;;;;;;;10.59;89.53;93544.41;523811;28;816;-59
2023/05/19 00:49:25;;;;;;;9.43;7.27;;;;;;;10.58;89.58;93542.94;523834;28;864;-59
2023/05/19 00:49:41;;;;;;;10.33;6.60;;;;;;;10.57;89.67;93543.47;523819;28;1553;-59
2023/05/19 00:49:56;;;;;;;9.90;6.50;;;;;;;10.59;89.56;93547.19;523787;28;887;-58
2023/05/19 00:50:11;;;;;;;8.13;6.67;;;;;;;10.61;89.67;93555.66;523816;28;824;-58
2023/05/19 00:50:27;;;;;;;7.53;6.40;;;;;;;10.61;89.64;93560.44;523928;28;793;-58
2023/05/19 00:50:44;;;;;;;7.28;6.45;;;;;;;10.65;89.48;93564.31;523975;28;945;-59
2023/05/19 00:51:03;;;;;;;8.15;6.63;;;;;;;10.66;89.53;93554.00;523878;28;976;-59
2023/05/19 00:51:18;;;;;;;9.23;6.30;;;;;;;10.63;89.75;93553.06;523927;28;790;-59
2023/05/19 00:51:34;;;;;;;12.30;6.90;;;;;;;10.62;89.59;93551.63;521697;28;894;-59
2023/05/19 00:51:50;;;;;;;16.95;7.45;;;;;;;10.58;89.75;93540.19;521674;28;890;-58
2023/05/19 00:52:05;;;;;;;18.53;7.37;;;;;;;10.42;89.66;93527.59;519706;28;833;-59
2023/05/19 00:52:21;;;;;;;14.65;6.60;;;;;;;10.57;89.87;93538.69;519700;28;896;-59
2023/05/19 00:52:36;;;;;;;12.18;6.22;;;;;;;10.62;89.87;93540.56;519672;28;1066;-58
2023/05/19 00:52:52;;;;;;;10.47;6.03;;;;;;;10.63;89.71;93544.06;519679;28;812;-58
2023/05/19 00:53:07;;;;;;;8.77;5.90;;;;;;;10.62;89.30;93543.34;519750;28;859;-58
2023/05/19 00:53:23;;;;;;;8.25;6.15;;;;;;;10.52;89.37;93534.09;518357;28;789;-59
2023/05/19 00:53:39;;;;;;;7.20;5.85;;;;;;;10.62;89.28;93553.63;519680;28;878;-58
2023/05/19 00:53:55;;;;;;;7.72;5.65;;;;;;;10.62;89.31;93537.81;519984;28;1922;-58
2023/05/19 00:54:10;;;;;;;7.82;5.90;;;;;;;10.64;89.21;93546.28;521745;28;972;-58
2023/05/19 00:54:27;;;;;;;10.60;6.23;;;;;;;10.68;89.11;93543.16;521820;28;809;-58
2023/05/19 00:54:43;;;;;;;9.65;6.13;;;;;;;10.69;89.04;93544.66;521759;28;927;-58
2023/05/19 00:54:58;;;;;;;7.15;5.93;;;;;;;10.72;89.03;93542.81;521738;28;934;-58
2023/05/19 00:55:14;;;;;;;7.17;5.97;;;;;;;10.66;88.96;93552.00;522457;28;808;-59
2023/05/19 00:55:30;;;;;;;9.88;7.03;;;;;;;10.56;89.26;93545.53;523903;28;813;-59
2023/05/19 00:55:46;;;;;;;10.20;7.05;;;;;;;10.57;89.40;93540.72;523774;28;990;-58
2023/05/19 00:56:02;;;;;;;7.55;6.55;;;;;;;10.61;89.57;93552.88;523828;28;821;-59
2023/05/19 00:56:18;;;;;;;7.28;6.55;;;;;;;10.64;89.54;93551.06;523758;28;1078;-59
2023/05/19 00:56:33;;;;;;;7.90;6.73;;;;;;;10.68;89.46;93559.00;521793;28;868;-59
2023/05/19 00:56:48;;;;;;;7.95;6.63;;;;;;;10.68;89.39;93551.44;521784;28;776;-58
2023/05/19 00:57:04;;;;;;;7.67;6.23;;;;;;;10.72;89.55;93554.56;521825;28;804;-58
2023/05/19 00:57:20;;;;;;;8.18;6.57;;;;;;;10.73;89.56;93549.81;521636;28;1090;-58
2023/05/19 00:57:35;;;;;;;9.10;7.23;;;;;;;10.77;89.34;93550.19;522277;28;856;-58
2023/05/19 00:57:51;;;;;;;8.93;6.93;;;;;;;10.78;89.28;93546.16;521744;28;951;-59
2023/05/19 00:58:08;;;;;;;8.13;6.82;;;;;;;10.78;89.28;93549.66;519626;28;1149;-59
2023/05/19 00:58:29;;;;;;;9.38;7.13;;;;;;;10.73;89.34;93538.75;517691;28;843;-60
2023/05/19 00:58:44;;;;;;;8.88;7.03;;;;;;;10.77;89.21;93537.13;517680;28;867;-59
2023/05/19 00:59:00;;;;;;;9.35;6.63;;;;;;;10.73;89.06;93536.00;517596;28;844;-60
2023/05/19 00:59:15;;;;;;;8.33;6.23;;;;;;;10.63;88.96;93535.78;517602;28;1027;-61
2023/05/19 00:59:31;;;;;;;6.93;6.10;;;;;;;10.55;89.15;93533.00;519010;28;826;-59
2023/05/19 00:59:49;;;;;;;7.70;6.10;;;;;;;10.53;89.64;93535.56;520989;28;1100;-58
2023/05/19 01:00:05;;;;;;;8.20;5.63;;;;;;;10.45;89.79;93540.31;521785;28;794;-58
2023/05/19 01:00:21;;;;;;;11.63;6.45;;;;;;;10.32;90.46;93529.41;521776;28;854;-59
2023/05/19 01:00:38;;;;;;;13.52;7.00;;;;;;;10.32;90.77;93537.69;523328;28;848;-58
2023/05/19 01:00:55;;;;;;;12.00;6.75;;;;;;;10.29;91.24;93536.00;522759;28;1147;-59
2023/05/19 01:01:13;;;;;;;9.40;6.17;;;;;;;10.26;91.27;93536.38;521763;28;861;-59
2023/05/19 01:01:28;;;;;;;7.00;5.15;;;;;;;10.21;91.63;93538.00;521748;28;1065;-60
2023/05/19 01:01:47;;;;;;;6.20;5.03;;;;;;;10.20;91.92;93547.53;521742;28;921;-60
2023/05/19 01:02:03;;;;;;;7.57;5.60;;;;;;;10.22;91.87;93541.50;519612;28;991;-60
2023/05/19 01:02:18;;;;;;;8.23;6.10;;;;;;;10.24;91.98;93547.22;519684;28;829;-59
2023/05/19 01:02:34;;;;;;;7.07;6.10;;;;;;;10.17;92.26;93542.38;519701;28;991;-59
2023/05/19 01:02:50;;;;;;;9.37;6.27;;;;;;;10.20;92.26;93555.81;521130;28;900;-59
2023/05/19 01:03:11;;;;;;;9.73;6.75;;;;;;;10.17;92.40;93548.66;523015;28;887;-59
2023/05/19 01:03:29;;;;;;;8.60;6.90;;;;;;;10.16;92.54;93557.44;523777;28;966;-59
2023/05/19 01:03:45;;;;;;;8.77;6.80;;;;;;;10.13;92.85;93556.53;523826;28;875;-59
2023/05/19 01:04:03;;;;;;;8.32;7.03;;;;;;;10.17;92.94;93553.41;523889;28;812;-59
2023/05/19 01:04:20;;;;;;;8.60;7.13;;;;;;;10.19;92.95;93553.63;523768;28;1645;-59
2023/05/19 01:04:36;;;;;;;8.20;6.22;;;;;;;10.20;93.00;93549.59;523851;28;853;-59
2023/05/19 01:04:52;;;;;;;12.32;6.35;;;;;;;10.20;92.72;93546.81;523786;28;1050;-59
2023/05/19 01:05:08;;;;;;;10.07;6.73;;;;;;;10.25;92.73;93554.19;521809;28;770;-59
2023/05/19 01:05:24;;;;;;;8.57;6.32;;;;;;;10.22;92.58;93552.53;521671;28;1687;-59
2023/05/19 01:05:40;;;;;;;6.78;5.82;;;;;;;10.18;92.48;93555.63;521758;28;812;-59
2023/05/19 01:06:00;;;;;;;10.15;6.00;;;;;;;10.17;92.26;93548.66;522998;28;1189;-59
2023/05/19 01:06:17;;;;;;;11.02;6.35;;;;;;;10.20;92.34;93544.78;523845;28;881;-59
2023/05/19 01:06:33;;;;;;;9.93;6.68;;;;;;;10.24;92.26;93545.19;523652;28;952;-60
2023/05/19 01:06:53;;;;;;;8.07;6.53;;;;;;;10.29;92.05;93540.78;523502;28;1124;-60
2023/05/19 01:07:09;;;;;;;7.43;6.28;;;;;;;10.32;91.86;93536.94;521722;28;1010;-59
2023/05/19 01:07:24;;;;;;;6.53;5.72;;;;;;;10.31;91.96;93533.44;521738;28;881;-58
2023/05/19 01:07:40;;;;;;;7.83;6.03;;;;;;;10.32;91.90;93532.16;521846;28;923;-59
2023/05/19 01:07:55;;;;;;;9.02;6.90;;;;;;;10.36;91.83;93534.56;521902;28;808;-59
2023/05/19 01:08:11;;;;;;;8.80;7.32;;;;;;;10.37;91.75;93531.25;521950;28;839;-58
2023/05/19 01:08:27;;;;;;;7.83;7.03;;;;;;;10.40;91.71;93523.91;521934;28;1367;-58
2023/05/19 01:08:43;;;;;;;11.15;6.57;;;;;;;10.42;91.54;93513.06;521973;28;924;-59
2023/05/19 01:08:58;;;;;;;11.18;6.18;;;;;;;10.45;91.49;93512.72;521861;28;1008;-58
2023/05/19 01:09:15;;;;;;;7.23;6.20;;;;;;;10.45;91.55;93503.69;521852;28;884;-59
2023/05/19 01:09:31;;;;;;;10.88;6.57;;;;;;;10.41;91.34;93511.59;521955;28;802;-58
2023/05/19 01:09:46;;;;;;;10.52;6.22;;;;;;;10.37;91.03;93516.75;521901;28;919;-58
2023/05/19 01:10:02;;;;;;;6.63;5.57;;;;;;;10.32;90.56;93520.38;521815;28;845;-60
2023/05/19 01:10:17;;;;;;;6.32;5.18;;;;;;;10.31;90.33;93530.69;521986;28;848;-59
2023/05/19 01:10:33;;;;;;;6.63;4.83;;;;;;;10.24;90.66;93538.94;521951;28;864;-59
2023/05/19 01:10:48;;;;;;;7.10;5.30;;;;;;;10.18;91.39;93544.59;521881;28;1183;-60
2023/05/19 01:11:05;;;;;;;6.83;6.13;;;;;;;10.12;91.90;93551.53;521884;28;844;-59
2023/05/19 01:11:21;;;;;;;6.97;6.07;;;;;;;10.09;92.37;93558.84;521832;28;938;-60
2023/05/19 01:11:36;;;;;;;9.13;6.35;;;;;;;10.04;92.93;93564.53;521920;28;848;-60
2023/05/19 01:11:52;;;;;;;9.83;6.40;;;;;;;10.05;93.32;93552.22;521882;28;796;-59
2023/05/19 01:12:07;;;;;;;8.98;6.25;;;;;;;10.10;93.46;93563.09;521741;28;918;-60
2023/05/19 01:12:23;;;;;;;9.80;6.37;;;;;;;10.15;93.57;93559.50;521835;28;978;-60
2023/05/19 01:12:39;;;;;;;9.18;6.40;;;;;;;10.18;93.44;93572.19;521726;28;845;-60
2023/05/19 01:12:54;;;;;;;7.72;6.35;;;;;;;10.18;93.42;93563.19;521720;28;808;-59
2023/05/19 01:13:10;;;;;;;6.80;6.10;;;;;;;10.20;93.13;93566.13;521792;28;796;-60
2023/05/19 01:13:26;;;;;;;7.25;5.82;;;;;;;10.20;92.99;93555.09;519689;28;896;-60
2023/05/19 01:13:42;;;;;;;9.10;6.03;;;;;;;10.15;92.97;93558.75;519663;28;940;-60
2023/05/19 01:13:57;;;;;;;9.23;6.40;;;;;;;10.17;92.82;93565.19;519524;28;1975;-60
2023/05/19 01:14:13;;;;;;;8.43;6.33;;;;;;;10.19;92.78;93559.13;519669;28;1200;-60
2023/05/19 01:14:29;;;;;;;10.43;5.82;;;;;;;10.14;93.10;93571.78;518157;28;864;-60
2023/05/19 01:14:44;;;;;;;10.80;5.65;;;;;;;10.15;93.28;93562.25;519757;28;825;-60
2023/05/19 01:15:00;;;;;;;9.67;6.10;;;;;;;10.08;93.25;93540.09;519676;28;746;-60
2023/05/19 01:15:15;;;;;;;8.50;6.10;;;;;;;10.23;93.06;93565.78;520136;28;852;-59
2023/05/19 01:15:39;;;;;;;8.25;6.18;;;;;;;10.28;92.83;93567.66;519652;28;1066;-59
2023/05/19 01:16:06;;;;;;;7.70;5.82;;;;;;;10.29;92.35;93566.34;519656;28;1084;-60
2023/05/19 01:16:39;;;;;;;7.63;5.75;;;;;;;10.33;91.91;93560.50;520644;28;857;-59
2023/05/19 01:17:13;;;;;;;7.50;6.57;;;;;;;10.39;91.71;93561.84;525116;28;1229;-59
2023/05/19 01:17:35;;;;;;;8.98;5.88;;;;;;;10.34;91.48;93551.69;529534;28;910;-59
2023/05/19 01:18:06;;;;;;;9.45;5.93;;;;;;;10.36;91.58;93553.88;527990;28;871;-59
2023/05/19 01:18:27;;;;;;;7.55;6.30;;;;;;;10.24;91.92;93542.44;525888;28;910;-59
2023/05/19 01:18:54;;;;;;;8.32;6.32;;;;;;;10.15;92.61;93540.19;523656;28;871;-60
2023/05/19 01:19:52;;;;;;;6.88;5.75;;;;;;;10.22;92.85;93547.75;521685;28;884;-60
2023/05/19 01:20:20;;;;;;;7.75;6.45;;;;;;;10.19;92.91;93551.59;519894;28;1201;-60